createdAt,value
2022-12-20T00:00:42.126Z,12.1
2022-12-20T00:01:42.204Z,12
2022-12-20T00:02:42.279Z,12
2022-12-20T00:04:42.117Z,12
2022-12-20T00:05:42.127Z,12.1
2022-12-20T00:06:42.126Z,12.2
2022-12-20T00:07:42.148Z,12
2022-12-20T00:08:42.140Z,12
2022-12-20T00:09:42.118Z,12.2
2022-12-20T00:10:42.126Z,12.2
2022-12-20T00:11:42.121Z,12.2
2022-12-20T00:12:42.117Z,12.2
2022-12-20T00:13:42.121Z,12
2022-12-20T00:15:42.125Z,12.3
2022-12-20T00:16:42.121Z,12.2
2022-12-20T00:17:42.189Z,12.2
2022-12-20T00:18:42.138Z,12.2
2022-12-20T00:19:42.130Z,12.3
2022-12-20T00:20:42.125Z,12.3
2022-12-20T00:21:42.157Z,12.3
2022-12-20T00:22:42.233Z,12.2
2022-12-20T00:23:42.120Z,12.2
2022-12-20T00:25:42.131Z,12.2
2022-12-20T00:26:42.138Z,12.3
2022-12-20T00:27:42.118Z,12.2
2022-12-20T00:28:42.128Z,12.1
2022-12-20T00:29:42.127Z,12.2
2022-12-20T00:31:42.202Z,12.1
2022-12-20T00:32:42.122Z,12.2
2022-12-20T00:34:42.132Z,12.3
2022-12-20T00:35:42.117Z,12.4
2022-12-20T00:36:42.122Z,12.4
2022-12-20T00:37:42.127Z,12.3
2022-12-20T00:38:42.129Z,12.3
2022-12-20T00:39:42.130Z,12.3
2022-12-20T00:40:42.119Z,12.3
2022-12-20T00:41:42.198Z,12.4
2022-12-20T00:42:42.123Z,12.4
2022-12-20T00:43:42.118Z,12.3
2022-12-20T00:44:42.134Z,12.2
2022-12-20T00:45:42.135Z,12.2
2022-12-20T00:46:42.230Z,12.3
2022-12-20T00:47:42.122Z,12.3
2022-12-20T00:48:42.127Z,12.1
2022-12-20T00:49:42.122Z,12.1
2022-12-20T00:50:42.128Z,12.1
2022-12-20T00:51:42.135Z,11.9
2022-12-20T00:52:42.155Z,12.1
2022-12-20T00:53:42.135Z,12
2022-12-20T00:55:42.127Z,12
2022-12-20T00:56:42.123Z,12
2022-12-20T00:57:42.116Z,12
2022-12-20T00:58:42.144Z,11.9
2022-12-20T00:59:42.138Z,12
2022-12-20T01:00:42.217Z,12.1
2022-12-20T01:01:42.320Z,12.1
2022-12-20T01:02:42.375Z,12.1
2022-12-20T01:03:42.230Z,12.1
2022-12-20T01:04:42.508Z,12.2
2022-12-20T01:05:42.143Z,12.1
2022-12-20T01:06:42.128Z,12.1
2022-12-20T01:07:42.131Z,12.1
2022-12-20T01:08:42.122Z,11.9
2022-12-20T01:09:42.128Z,12
2022-12-20T01:10:42.126Z,12
2022-12-20T01:11:42.117Z,12.1
2022-12-20T01:13:42.128Z,12.1
2022-12-20T01:14:42.121Z,12
2022-12-20T01:15:42.128Z,12.1
2022-12-20T01:16:42.275Z,12.2
2022-12-20T01:17:42.131Z,12.2
2022-12-20T01:18:42.180Z,12.2
2022-12-20T01:19:42.125Z,12.2
2022-12-20T01:20:42.128Z,12.1
2022-12-20T01:22:47.260Z,12
2022-12-20T01:23:42.150Z,12.1
2022-12-20T01:24:42.119Z,12.1
2022-12-20T01:25:42.147Z,12.2
2022-12-20T01:26:42.130Z,12.1
2022-12-20T01:27:42.156Z,12.1
2022-12-20T01:28:42.119Z,12.1
2022-12-20T01:29:42.133Z,12.1
2022-12-20T01:30:42.148Z,12.2
2022-12-20T01:31:42.249Z,12.1
2022-12-20T01:32:42.135Z,12.2
2022-12-20T01:33:42.132Z,12.1
2022-12-20T01:34:42.135Z,12
2022-12-20T01:35:42.128Z,12.1
2022-12-20T01:36:42.127Z,12.1
2022-12-20T01:37:42.136Z,12.1
2022-12-20T01:38:42.133Z,12
2022-12-20T01:39:42.145Z,12.1
2022-12-20T01:40:42.135Z,12.1
2022-12-20T01:41:42.126Z,12.1
2022-12-20T01:42:42.128Z,12.3
2022-12-20T01:43:42.130Z,12.3
2022-12-20T01:44:42.124Z,12.3
2022-12-20T01:45:42.173Z,12.2
2022-12-20T01:46:42.127Z,12.3
2022-12-20T01:48:42.121Z,12.4
2022-12-20T01:49:42.123Z,12.4
2022-12-20T01:50:42.122Z,12.3
2022-12-20T01:51:42.128Z,12.4
2022-12-20T01:52:42.127Z,12.4
2022-12-20T01:53:42.145Z,12.3
2022-12-20T01:54:42.175Z,12.4
2022-12-20T01:55:42.135Z,12.3
2022-12-20T01:56:42.147Z,12.4
2022-12-20T01:57:42.124Z,12.4
2022-12-20T01:58:42.125Z,12.3
2022-12-20T01:59:42.126Z,12.4
2022-12-20T02:00:42.173Z,12.4
2022-12-20T02:01:42.294Z,12.4
2022-12-20T02:02:42.333Z,12.4
2022-12-20T02:03:42.200Z,12.3
2022-12-20T02:04:42.148Z,12.4
2022-12-20T02:05:42.118Z,12.3
2022-12-20T02:06:42.139Z,12.4
2022-12-20T02:07:42.127Z,12.3
2022-12-20T02:09:42.128Z,12.4
2022-12-20T02:10:42.127Z,12.4
2022-12-20T02:11:42.128Z,12.6
2022-12-20T02:12:42.120Z,12.6
2022-12-20T02:13:42.151Z,12.5
2022-12-20T02:14:42.127Z,12.5
2022-12-20T02:15:42.118Z,12.5
2022-12-20T02:16:42.295Z,12.5
2022-12-20T02:17:42.122Z,12.4
2022-12-20T02:18:42.128Z,12.4
2022-12-20T02:19:42.134Z,12.3
2022-12-20T02:20:42.150Z,12.4
2022-12-20T02:21:42.122Z,12.4
2022-12-20T02:22:42.128Z,12.3
2022-12-20T02:23:42.163Z,12.3
2022-12-20T02:24:42.127Z,12.3
2022-12-20T02:25:42.195Z,12.3
2022-12-20T02:26:42.126Z,12.3
2022-12-20T02:27:42.124Z,12.3
2022-12-20T02:28:42.126Z,12.2
2022-12-20T02:30:42.129Z,12.3
2022-12-20T02:31:42.208Z,12.4
2022-12-20T02:32:42.174Z,12.3
2022-12-20T02:33:42.127Z,12.3
2022-12-20T02:34:42.124Z,12.3
2022-12-20T02:35:42.129Z,12.3
2022-12-20T02:36:42.120Z,12.3
2022-12-20T02:37:42.127Z,12.3
2022-12-20T02:38:42.132Z,12.2
2022-12-20T02:39:42.127Z,12.2
2022-12-20T02:40:42.141Z,12.2
2022-12-20T02:41:42.129Z,11.9
2022-12-20T02:42:42.132Z,12
2022-12-20T02:43:42.127Z,12.1
2022-12-20T02:44:42.145Z,12.1
2022-12-20T02:45:42.192Z,12.1
2022-12-20T02:46:42.148Z,12.2
2022-12-20T02:47:42.128Z,12.1
2022-12-20T02:48:42.157Z,11.9
2022-12-20T02:49:42.122Z,11.9
2022-12-20T02:50:42.180Z,12
2022-12-20T02:51:42.129Z,12
2022-12-20T02:52:42.860Z,12
2022-12-20T02:53:42.962Z,11.9
2022-12-20T02:54:42.130Z,11.9
2022-12-20T02:55:42.152Z,11.9
2022-12-20T02:56:42.187Z,11.8
2022-12-20T02:57:42.138Z,11.8
2022-12-20T02:58:42.202Z,11.8
2022-12-20T02:59:42.187Z,11.8
2022-12-20T03:00:42.159Z,11.9
2022-12-20T03:01:42.328Z,11.8
2022-12-20T03:02:42.437Z,11.8
2022-12-20T03:03:42.295Z,11.9
2022-12-20T03:04:42.158Z,11.8
2022-12-20T03:05:42.185Z,11.8
2022-12-20T03:06:42.137Z,11.7
2022-12-20T03:07:42.140Z,11.5
2022-12-20T03:09:42.195Z,11.6
2022-12-20T03:10:42.136Z,11.2
2022-12-20T03:11:42.203Z,11.4
2022-12-20T03:12:42.187Z,11.3
2022-12-20T03:13:42.128Z,11.4
2022-12-20T03:14:42.138Z,11.4
2022-12-20T03:15:42.130Z,11.4
2022-12-20T03:16:42.266Z,11.3
2022-12-20T03:17:42.122Z,11.1
2022-12-20T03:18:42.119Z,11.2
2022-12-20T03:19:42.130Z,11.2
2022-12-20T03:20:42.201Z,11
2022-12-20T03:21:42.148Z,11.1
2022-12-20T03:22:42.268Z,11.1
2022-12-20T03:23:42.129Z,11
2022-12-20T03:24:42.177Z,11.1
2022-12-20T03:25:42.200Z,11.1
2022-12-20T03:26:42.136Z,11.1
2022-12-20T03:27:42.186Z,11
2022-12-20T03:28:42.122Z,11
2022-12-20T03:29:42.135Z,11
2022-12-20T03:30:42.192Z,11
2022-12-20T03:31:42.132Z,10.8
2022-12-20T03:32:42.131Z,11
2022-12-20T03:33:42.128Z,11
2022-12-20T03:34:42.128Z,11
2022-12-20T03:35:42.158Z,11
2022-12-20T03:36:42.131Z,11
2022-12-20T03:37:42.129Z,11
2022-12-20T03:38:42.129Z,10.8
2022-12-20T03:39:42.128Z,10.8
2022-12-20T03:40:42.131Z,10.8
2022-12-20T03:42:42.145Z,10.8
2022-12-20T03:43:42.142Z,10.8
2022-12-20T03:44:42.226Z,10.8
2022-12-20T03:45:42.171Z,10.7
2022-12-20T03:46:42.229Z,10.7
2022-12-20T03:47:42.148Z,10.7
2022-12-20T03:48:42.130Z,10.7
2022-12-20T03:49:42.138Z,10.6
2022-12-20T03:51:42.140Z,10.7
2022-12-20T03:52:42.129Z,10.7
2022-12-20T03:53:42.131Z,10.6
2022-12-20T03:54:42.121Z,10.6
2022-12-20T03:55:45.319Z,10.7
2022-12-20T03:56:43.275Z,10.6
2022-12-20T03:57:42.125Z,10.7
2022-12-20T03:58:42.160Z,10.6
2022-12-20T03:59:42.129Z,10.7
2022-12-20T04:00:42.126Z,10.7
2022-12-20T04:01:42.234Z,10.7
2022-12-20T04:03:42.215Z,10.9
2022-12-20T04:04:42.128Z,10.8
2022-12-20T04:05:42.140Z,10.7
2022-12-20T04:06:42.122Z,10.8
2022-12-20T04:07:42.128Z,10.9
2022-12-20T04:09:42.144Z,10.9
2022-12-20T04:10:42.131Z,11
2022-12-20T04:11:42.144Z,10.8
2022-12-20T04:12:42.134Z,10.7
2022-12-20T04:13:42.131Z,10.9
2022-12-20T04:14:42.127Z,10.9
2022-12-20T04:15:42.202Z,10.9
2022-12-20T04:16:42.275Z,10.9
2022-12-20T04:17:42.134Z,10.9
2022-12-20T04:18:42.132Z,10.9
2022-12-20T04:19:42.127Z,10.8
2022-12-20T04:20:42.130Z,10.9
2022-12-20T04:21:42.125Z,10.9
2022-12-20T04:22:42.134Z,10.7
2022-12-20T04:24:42.151Z,10.7
2022-12-20T04:25:42.136Z,10.7
2022-12-20T04:26:42.128Z,10.9
2022-12-20T04:27:42.121Z,10.7
2022-12-20T04:28:42.126Z,10.9
2022-12-20T04:29:42.226Z,10.9
2022-12-20T04:30:42.162Z,10.9
2022-12-20T04:31:42.191Z,10.7
2022-12-20T04:32:42.143Z,10.9
2022-12-20T04:33:42.150Z,10.9
2022-12-20T04:34:42.133Z,10.9
2022-12-20T04:35:42.161Z,10.8
2022-12-20T04:36:42.123Z,10.9
2022-12-20T04:37:42.142Z,10.9
2022-12-20T04:39:42.135Z,10.8
2022-12-20T04:40:42.161Z,10.9
2022-12-20T04:41:42.137Z,10.9
2022-12-20T04:42:42.121Z,10.9
2022-12-20T04:43:42.125Z,10.8
2022-12-20T04:44:42.130Z,10.8
2022-12-20T04:45:42.122Z,10.9
2022-12-20T04:46:42.228Z,10.9
2022-12-20T04:47:42.123Z,10.9
2022-12-20T04:48:59.190Z,10.8
2022-12-20T04:49:42.130Z,10.9
2022-12-20T04:50:42.151Z,10.7
2022-12-20T04:51:42.151Z,10.8
2022-12-20T04:53:42.149Z,10.8
2022-12-20T04:54:42.129Z,10.9
2022-12-20T04:55:42.177Z,10.9
2022-12-20T04:56:42.125Z,10.8
2022-12-20T04:57:42.127Z,10.8
2022-12-20T04:58:42.122Z,10.8
2022-12-20T04:59:42.134Z,10.8
2022-12-20T05:00:42.188Z,10.9
2022-12-20T05:01:42.284Z,10.9
2022-12-20T05:02:42.323Z,11
2022-12-20T05:03:42.184Z,10.9
2022-12-20T05:04:42.127Z,10.9
2022-12-20T05:05:42.159Z,10.8
2022-12-20T05:06:42.122Z,10.8
2022-12-20T05:07:42.121Z,10.7
2022-12-20T05:08:42.142Z,10.7
2022-12-20T05:09:42.128Z,10.9
2022-12-20T05:10:42.189Z,10.9
2022-12-20T05:11:42.123Z,10.8
2022-12-20T05:12:42.148Z,10.8
2022-12-20T05:13:42.127Z,10.9
2022-12-20T05:14:42.127Z,10.8
2022-12-20T05:15:42.225Z,10.8
2022-12-20T05:16:42.204Z,10.7
2022-12-20T05:17:42.215Z,10.8
2022-12-20T05:18:48.485Z,10.9
2022-12-20T05:19:42.128Z,10.8
2022-12-20T05:20:42.165Z,10.8
2022-12-20T05:21:42.177Z,10.9
2022-12-20T05:22:42.133Z,10.8
2022-12-20T05:23:42.391Z,10.8
2022-12-20T05:24:42.159Z,11
2022-12-20T05:25:42.170Z,10.9
2022-12-20T05:26:42.124Z,10.6
2022-12-20T05:27:42.125Z,10.7
2022-12-20T05:28:42.127Z,10.7
2022-12-20T05:29:42.134Z,10.8
2022-12-20T05:30:42.151Z,10.9
2022-12-20T05:31:42.221Z,10.9
2022-12-20T05:32:42.143Z,11
2022-12-20T05:33:42.118Z,10.9
2022-12-20T05:34:42.141Z,10.9
2022-12-20T05:37:42.147Z,10.8
2022-12-20T05:38:42.129Z,10.7
2022-12-20T05:39:42.131Z,10.9
2022-12-20T05:40:42.155Z,10.9
2022-12-20T05:41:42.145Z,11.1
2022-12-20T05:42:42.129Z,11
2022-12-20T05:43:42.123Z,11
2022-12-20T05:44:42.197Z,11
2022-12-20T05:45:42.157Z,10.9
2022-12-20T05:46:42.185Z,10.9
2022-12-20T05:47:42.129Z,10.9
2022-12-20T05:48:42.128Z,11
2022-12-20T05:49:42.131Z,11.1
2022-12-20T05:50:42.156Z,11
2022-12-20T05:51:42.132Z,11.1
2022-12-20T05:52:42.123Z,11
2022-12-20T05:53:42.133Z,11.1
2022-12-20T05:54:42.128Z,11.1
2022-12-20T05:55:42.138Z,10.9
2022-12-20T05:57:42.128Z,11
2022-12-20T05:58:42.148Z,11
2022-12-20T05:59:42.214Z,11.1
2022-12-20T06:00:42.138Z,11
2022-12-20T06:01:42.273Z,11.1
2022-12-20T06:02:42.336Z,11.2
2022-12-20T06:03:42.289Z,11.2
2022-12-20T06:04:42.147Z,11.1
2022-12-20T06:05:42.127Z,11.1
2022-12-20T06:06:42.129Z,11.1
2022-12-20T06:07:42.133Z,11.1
2022-12-20T06:08:42.123Z,11.1
2022-12-20T06:09:42.139Z,11.1
2022-12-20T06:10:42.167Z,11.1
2022-12-20T06:11:42.147Z,11.1
2022-12-20T06:12:42.171Z,11.2
2022-12-20T06:13:42.133Z,11.2
2022-12-20T06:14:42.139Z,11.1
2022-12-20T06:15:42.131Z,11.1
2022-12-20T06:16:42.280Z,11.2
2022-12-20T06:18:42.214Z,11.3
2022-12-20T06:19:42.257Z,11.3
2022-12-20T06:20:42.263Z,11.2
2022-12-20T06:21:42.307Z,11.3
2022-12-20T06:22:42.276Z,11.3
2022-12-20T06:23:42.272Z,11.3
2022-12-20T06:24:47.935Z,11.3
2022-12-20T06:25:42.290Z,11.3
2022-12-20T06:26:42.278Z,11.1
2022-12-20T06:27:42.290Z,11.2
2022-12-20T06:28:42.277Z,11.2
2022-12-20T06:29:42.300Z,11.2
2022-12-20T06:30:42.265Z,11.2
2022-12-20T06:31:42.319Z,11.2
2022-12-20T06:33:42.259Z,11.2
2022-12-20T06:35:42.275Z,11.3
2022-12-20T06:36:42.281Z,11.3
2022-12-20T06:37:42.272Z,11.4
2022-12-20T06:38:43.046Z,11.3
2022-12-20T06:39:42.273Z,11.3
2022-12-20T06:40:42.270Z,11.3
2022-12-20T06:41:42.275Z,11.3
2022-12-20T06:42:42.271Z,11.3
2022-12-20T06:43:42.282Z,11.4
2022-12-20T06:44:42.275Z,11.5
2022-12-20T06:45:43.359Z,11.4
2022-12-20T06:46:42.375Z,11.5
2022-12-20T06:47:42.273Z,11.4
2022-12-20T06:48:42.309Z,11.4
2022-12-20T06:49:42.274Z,11.5
2022-12-20T06:50:42.262Z,11.5
2022-12-20T06:51:42.362Z,11.5
2022-12-20T06:52:42.252Z,11.5
2022-12-20T06:53:42.269Z,11.6
2022-12-20T06:54:42.263Z,11.5
2022-12-20T06:55:42.295Z,11.5
2022-12-20T06:56:42.276Z,11.5
2022-12-20T06:57:42.293Z,11.5
2022-12-20T06:58:42.264Z,11.6
2022-12-20T06:59:42.245Z,11.5
2022-12-20T07:00:42.308Z,11.5
2022-12-20T07:01:42.436Z,11.5
2022-12-20T07:02:42.332Z,11.6
2022-12-20T07:03:42.376Z,11.6
2022-12-20T07:04:42.284Z,11.4
2022-12-20T07:05:42.266Z,11.5
2022-12-20T07:06:42.283Z,11.4
2022-12-20T07:07:45.189Z,11.6
2022-12-20T07:08:42.277Z,11.4
2022-12-20T07:09:42.299Z,11.5
2022-12-20T07:10:42.291Z,11.5
2022-12-20T07:11:42.817Z,11.4
2022-12-20T07:12:47.352Z,11.5
2022-12-20T07:13:42.261Z,11.3
2022-12-20T07:15:42.270Z,11.5
2022-12-20T07:16:42.486Z,11.5
2022-12-20T07:17:42.292Z,11.5
2022-12-20T07:18:42.274Z,11.4
2022-12-20T07:19:48.708Z,11.5
2022-12-20T07:20:42.262Z,11.5
2022-12-20T07:21:42.277Z,11.5
2022-12-20T07:22:42.209Z,11.6
2022-12-20T07:23:42.208Z,11.6
2022-12-20T07:24:42.389Z,11.5
2022-12-20T07:25:42.207Z,11.4
2022-12-20T07:27:42.210Z,11.6
2022-12-20T07:28:42.839Z,11.5
2022-12-20T07:29:42.235Z,11.6
2022-12-20T07:30:42.214Z,11.6
2022-12-20T07:32:42.216Z,11.6
2022-12-20T07:33:42.300Z,11.5
2022-12-20T07:34:42.213Z,11.6
2022-12-20T07:35:42.222Z,11.6
2022-12-20T07:36:42.203Z,11.6
2022-12-20T07:37:42.206Z,11.6
2022-12-20T07:38:42.214Z,11.6
2022-12-20T07:39:42.242Z,11.6
2022-12-20T07:40:42.260Z,11.5
2022-12-20T07:41:42.168Z,11.5
2022-12-20T07:42:48.223Z,11.5
2022-12-20T07:43:42.391Z,11.6
2022-12-20T07:44:42.140Z,11.6
2022-12-20T07:47:42.174Z,11.7
2022-12-20T07:48:42.155Z,11.7
2022-12-20T07:49:42.147Z,11.7
2022-12-20T07:51:42.142Z,11.7
2022-12-20T07:52:42.126Z,11.6
2022-12-20T07:53:42.123Z,11.7
2022-12-20T07:54:42.141Z,11.7
2022-12-20T07:55:42.179Z,11.7
2022-12-20T07:56:42.131Z,11.7
2022-12-20T07:57:42.527Z,11.5
2022-12-20T07:58:42.141Z,11.6
2022-12-20T07:59:42.124Z,11.6
2022-12-20T08:00:42.138Z,11.6
2022-12-20T08:01:42.324Z,11.6
2022-12-20T08:02:42.406Z,11.6
2022-12-20T08:03:42.215Z,11.4
2022-12-20T08:04:42.131Z,11.4
2022-12-20T08:05:42.131Z,11.4
2022-12-20T08:06:42.147Z,11.4
2022-12-20T08:08:42.126Z,11.6
2022-12-20T08:09:42.161Z,11.6
2022-12-20T08:10:42.132Z,11.5
2022-12-20T08:12:42.126Z,11.6
2022-12-20T08:13:46.268Z,11.7
2022-12-20T08:14:42.146Z,11.7
2022-12-20T08:15:42.127Z,11.8
2022-12-20T08:16:42.191Z,11.8
2022-12-20T08:17:42.141Z,11.6
2022-12-20T08:18:42.148Z,11.8
2022-12-20T08:19:42.134Z,11.9
2022-12-20T08:20:42.124Z,12
2022-12-20T08:22:42.133Z,12
2022-12-20T08:23:42.137Z,11.7
2022-12-20T08:24:42.133Z,11.8
2022-12-20T08:25:42.493Z,11.9
2022-12-20T08:26:42.132Z,12
2022-12-20T08:27:42.197Z,11.9
2022-12-20T08:29:42.145Z,12
2022-12-20T08:30:42.260Z,12.1
2022-12-20T08:31:49.520Z,12
2022-12-20T08:33:42.180Z,11.9
2022-12-20T08:34:42.130Z,12
2022-12-20T08:35:42.131Z,12
2022-12-20T08:36:42.151Z,12.1
2022-12-20T08:37:42.141Z,12.1
2022-12-20T08:38:42.127Z,12.1
2022-12-20T08:39:42.131Z,12.2
2022-12-20T08:40:42.133Z,12.2
2022-12-20T08:41:42.133Z,12.3
2022-12-20T08:42:42.134Z,12.2
2022-12-20T08:43:42.134Z,12
2022-12-20T08:44:42.124Z,12.1
2022-12-20T08:46:42.207Z,12.1
2022-12-20T08:48:42.197Z,12.1
2022-12-20T08:49:47.397Z,12.2
2022-12-20T08:50:42.136Z,12.3
2022-12-20T08:51:42.265Z,12.4
2022-12-20T08:52:42.157Z,12.4
2022-12-20T08:53:42.145Z,12.4
2022-12-20T08:54:42.134Z,12.3
2022-12-20T08:55:42.143Z,12.3
2022-12-20T08:56:42.130Z,12.4
2022-12-20T08:57:42.127Z,12.4
2022-12-20T08:58:42.138Z,12.3
2022-12-20T08:59:42.134Z,12.3
2022-12-20T09:00:42.175Z,12.1
2022-12-20T09:01:42.262Z,12.2
2022-12-20T09:03:42.249Z,12.4
2022-12-20T09:04:42.141Z,12.3
2022-12-20T09:05:42.128Z,12.4
2022-12-20T09:06:42.146Z,12.4
2022-12-20T09:07:42.145Z,12.4
2022-12-20T09:08:42.129Z,12.5
2022-12-20T09:09:42.131Z,12.5
2022-12-20T09:10:42.148Z,12.3
2022-12-20T09:11:42.129Z,12.5
2022-12-20T09:12:42.141Z,12.5
2022-12-20T09:13:44.435Z,12.5
2022-12-20T09:14:42.133Z,12.5
2022-12-20T09:15:42.171Z,12.6
2022-12-20T09:16:42.148Z,12.6
2022-12-20T09:17:42.124Z,12.5
2022-12-20T09:18:42.131Z,12.3
2022-12-20T09:19:42.155Z,12.5
2022-12-20T09:20:42.142Z,12.4
2022-12-20T09:21:42.135Z,12.4
2022-12-20T09:22:42.143Z,12.5
2022-12-20T09:23:42.274Z,12.5
2022-12-20T09:24:42.142Z,12.6
2022-12-20T09:25:42.135Z,12.6
2022-12-20T09:26:42.150Z,12.6
2022-12-20T09:27:42.133Z,12.5
2022-12-20T09:28:42.132Z,12.5
2022-12-20T09:29:42.125Z,12.5
2022-12-20T09:30:42.165Z,12.6
2022-12-20T09:31:42.264Z,12.6
2022-12-20T09:32:42.142Z,12.5
2022-12-20T09:33:42.150Z,12.5
2022-12-20T09:34:42.136Z,12.6
2022-12-20T09:35:42.123Z,12.6
2022-12-20T09:36:42.143Z,12.6
2022-12-20T09:37:42.132Z,12.6
2022-12-20T09:38:42.151Z,12.7
2022-12-20T09:39:42.135Z,12.6
2022-12-20T09:41:42.137Z,12.6
2022-12-20T09:42:42.136Z,12.6
2022-12-20T09:43:42.140Z,12.3
2022-12-20T09:45:42.132Z,12.5
2022-12-20T09:46:42.340Z,12.6
2022-12-20T09:47:42.137Z,12.6
2022-12-20T09:48:42.133Z,12.7
2022-12-20T09:49:42.176Z,12.7
2022-12-20T09:50:42.155Z,12.5
2022-12-20T09:51:42.148Z,12.4
2022-12-20T09:52:42.136Z,12.5
2022-12-20T09:53:42.161Z,12.5
2022-12-20T09:54:42.260Z,12.5
2022-12-20T09:55:42.143Z,12.6
2022-12-20T09:56:42.160Z,12.5
2022-12-20T09:57:42.159Z,12.6
2022-12-20T09:59:47.490Z,12.7
2022-12-20T10:00:42.135Z,12.6
2022-12-20T10:03:06.615Z,12.7
2022-12-20T10:03:42.396Z,12.8
2022-12-20T10:04:42.457Z,12.7
2022-12-20T10:06:42.171Z,12.7
2022-12-20T10:07:42.139Z,12.8
2022-12-20T10:08:42.166Z,12.7
2022-12-20T10:09:42.144Z,12.6
2022-12-20T10:10:42.138Z,12.7
2022-12-20T10:11:49.925Z,12.6
2022-12-20T10:12:42.179Z,12.7
2022-12-20T10:13:42.171Z,12.7
2022-12-20T10:14:42.164Z,12.7
2022-12-20T10:15:42.172Z,12.6
2022-12-20T10:17:42.139Z,12.6
2022-12-20T10:18:42.195Z,12.6
2022-12-20T10:19:42.205Z,12.5
2022-12-20T10:20:42.125Z,12.5
2022-12-20T10:21:42.165Z,12.6
2022-12-20T10:23:42.415Z,12.6
2022-12-20T10:24:42.158Z,12.6
2022-12-20T10:25:42.174Z,12.7
2022-12-20T10:27:42.164Z,12.6
2022-12-20T10:28:42.123Z,12.5
2022-12-20T10:29:42.200Z,12.5
2022-12-20T10:30:42.147Z,12.6
2022-12-20T10:31:42.160Z,12.8
2022-12-20T10:32:42.124Z,12.8
2022-12-20T10:33:42.137Z,13
2022-12-20T10:34:48.225Z,12.9
2022-12-20T10:35:42.125Z,12.9
2022-12-20T10:36:42.174Z,12.9
2022-12-20T10:38:42.142Z,12.9
2022-12-20T10:39:42.126Z,12.9
2022-12-20T10:41:42.132Z,12.9
2022-12-20T10:42:42.135Z,12.9
2022-12-20T10:44:42.134Z,12.9
2022-12-20T10:45:42.144Z,12.8
2022-12-20T10:46:42.246Z,12.9
2022-12-20T10:47:42.128Z,12.9
2022-12-20T10:48:42.142Z,12.9
2022-12-20T10:49:42.130Z,12.9
2022-12-20T10:50:42.150Z,12.8
2022-12-20T10:51:42.137Z,12.8
2022-12-20T10:52:42.124Z,12.5
2022-12-20T10:53:42.134Z,12.8
2022-12-20T10:54:42.137Z,12.8
2022-12-20T10:55:42.133Z,12.9
2022-12-20T10:56:42.148Z,12.9
2022-12-20T10:57:42.137Z,12.9
2022-12-20T10:59:42.128Z,12.8
2022-12-20T11:00:42.147Z,12.7
2022-12-20T11:01:42.325Z,12.7
2022-12-20T11:02:43.155Z,12.7
2022-12-20T11:03:42.262Z,12.7
2022-12-20T11:05:42.127Z,12.7
2022-12-20T11:06:42.140Z,12.7
2022-12-20T11:07:50.408Z,12.8
2022-12-20T11:08:51.252Z,12.8
2022-12-20T11:09:42.159Z,13
2022-12-20T11:10:42.176Z,12.9
2022-12-20T11:11:42.136Z,13
2022-12-20T11:12:42.130Z,13
2022-12-20T11:13:42.162Z,12.9
2022-12-20T11:14:42.147Z,12.9
2022-12-20T11:15:42.150Z,12.8
2022-12-20T11:16:42.172Z,12.9
2022-12-20T11:17:42.131Z,12.7
2022-12-20T11:18:42.136Z,12.7
2022-12-20T11:19:42.130Z,12.9
2022-12-20T11:20:42.131Z,12.8
2022-12-20T11:21:42.181Z,12.9
2022-12-20T11:22:42.136Z,12.7
2022-12-20T11:23:42.131Z,12.7
2022-12-20T11:24:42.126Z,12.7
2022-12-20T11:25:42.140Z,12.7
2022-12-20T11:26:42.216Z,12.8
2022-12-20T11:27:42.163Z,12.8
2022-12-20T11:28:42.146Z,12.7
2022-12-20T11:29:42.128Z,12.6
2022-12-20T11:30:42.139Z,12.7
2022-12-20T11:31:42.179Z,12.6
2022-12-20T11:32:48.303Z,12.6
2022-12-20T11:33:42.130Z,12.7
2022-12-20T11:34:42.131Z,12.8
2022-12-20T11:35:42.132Z,12.7
2022-12-20T11:36:42.136Z,12.8
2022-12-20T11:37:42.129Z,12.9
2022-12-20T11:39:42.142Z,12.8
2022-12-20T11:40:42.130Z,12.8
2022-12-20T11:41:42.143Z,12.9
2022-12-20T11:42:42.136Z,12.8
2022-12-20T11:44:01.395Z,12.7
2022-12-20T11:44:48.545Z,12.8
2022-12-20T11:45:42.139Z,12.8
2022-12-20T11:46:42.173Z,12.9
2022-12-20T11:47:43.558Z,12.9
2022-12-20T11:48:42.139Z,12.8
2022-12-20T11:49:42.146Z,12.8
2022-12-20T11:50:42.136Z,12.7
2022-12-20T11:51:42.127Z,12.7
2022-12-20T11:52:42.131Z,12.7
2022-12-20T11:53:42.145Z,12.7
2022-12-20T11:54:42.131Z,12.8
2022-12-20T11:55:42.137Z,12.6
2022-12-20T11:56:44.720Z,12.7
2022-12-20T11:58:08.887Z,12.7
2022-12-20T11:58:42.165Z,12.7
2022-12-20T12:00:42.125Z,12.6
2022-12-20T12:01:42.189Z,12.7
2022-12-20T12:02:42.272Z,12.6
2022-12-20T12:03:42.128Z,12.6
2022-12-20T12:04:42.313Z,12.7
2022-12-20T12:05:42.197Z,12.7
2022-12-20T12:06:42.147Z,12.9
2022-12-20T12:07:42.137Z,12.9
2022-12-20T12:08:42.131Z,12.9
2022-12-20T12:09:42.138Z,13
2022-12-20T12:10:42.156Z,13
2022-12-20T12:12:09.579Z,13.1
2022-12-20T12:12:42.137Z,13
2022-12-20T12:13:42.133Z,13
2022-12-20T12:14:42.151Z,12.7
2022-12-20T12:15:42.153Z,12.9
2022-12-20T12:17:42.153Z,13
2022-12-20T12:18:42.144Z,13
2022-12-20T12:19:42.134Z,13.1
2022-12-20T12:21:42.139Z,13.1
2022-12-20T12:22:42.193Z,13.1
2022-12-20T12:23:42.137Z,13.1
2022-12-20T12:24:42.136Z,13.2
2022-12-20T12:25:42.134Z,13.3
2022-12-20T12:26:42.140Z,13.2
2022-12-20T12:27:42.138Z,13.3
2022-12-20T12:28:42.136Z,13.3
2022-12-20T12:29:42.164Z,13.4
2022-12-20T12:30:42.136Z,13.3
2022-12-20T12:32:44.463Z,13.4
2022-12-20T12:33:42.191Z,13.5
2022-12-20T12:34:42.145Z,13.4
2022-12-20T12:35:42.156Z,13.4
2022-12-20T12:36:42.146Z,13.3
2022-12-20T12:37:42.135Z,13.4
2022-12-20T12:38:42.139Z,13.4
2022-12-20T12:39:42.162Z,13.4
2022-12-20T12:40:46.107Z,13.3
2022-12-20T12:41:42.146Z,13.3
2022-12-20T12:42:42.146Z,13.3
2022-12-20T12:43:42.148Z,13.4
2022-12-20T12:44:42.135Z,13.5
2022-12-20T12:45:42.186Z,13.6
2022-12-20T12:46:42.184Z,13.4
2022-12-20T12:47:42.172Z,13.5
2022-12-20T12:48:42.155Z,13.3
2022-12-20T12:49:42.141Z,13.3
2022-12-20T12:50:42.135Z,13.4
2022-12-20T12:51:42.145Z,13.5
2022-12-20T12:53:42.128Z,13.6
2022-12-20T12:54:42.140Z,13.6
2022-12-20T12:55:42.147Z,13.6
2022-12-20T12:56:44.713Z,13.4
2022-12-20T12:57:42.137Z,13.6
2022-12-20T12:59:42.137Z,13.6
2022-12-20T13:00:42.199Z,13.7
2022-12-20T13:01:42.313Z,13.7
2022-12-20T13:02:42.307Z,13.6
2022-12-20T13:03:42.240Z,13.5
2022-12-20T13:04:42.134Z,13.6
2022-12-20T13:05:42.138Z,13.4
2022-12-20T13:06:42.135Z,13.5
2022-12-20T13:07:42.135Z,13.5
2022-12-20T13:08:42.143Z,13.5
2022-12-20T13:09:42.139Z,13.4
2022-12-20T13:11:46.932Z,12.8
2022-12-20T13:12:42.132Z,13
2022-12-20T13:13:42.138Z,12.9
2022-12-20T13:14:42.138Z,13
2022-12-20T13:15:42.149Z,12.8
2022-12-20T13:17:10.767Z,12.6
2022-12-20T13:17:42.202Z,12.6
2022-12-20T13:18:42.134Z,12.5
2022-12-20T13:19:42.139Z,12.4
2022-12-20T13:20:42.154Z,12.3
2022-12-20T13:21:42.142Z,12.2
2022-12-20T13:22:42.151Z,12.1
2022-12-20T13:23:42.150Z,12.1
2022-12-20T13:24:42.145Z,12.1
2022-12-20T13:27:42.137Z,12.2
2022-12-20T13:29:42.142Z,12.2
2022-12-20T13:30:42.321Z,12
2022-12-20T13:31:42.160Z,12
2022-12-20T13:32:42.136Z,12
2022-12-20T13:33:42.155Z,11.9
2022-12-20T13:35:42.142Z,11.8
2022-12-20T13:36:42.170Z,11.7
2022-12-20T13:37:42.141Z,11.8
2022-12-20T13:38:42.141Z,11.7
2022-12-20T13:39:42.144Z,11.8
2022-12-20T13:40:42.143Z,11.8
2022-12-20T13:41:42.134Z,11.6
2022-12-20T13:42:42.160Z,11.8
2022-12-20T13:43:42.138Z,11.8
2022-12-20T13:44:42.162Z,11.8
2022-12-20T13:45:42.195Z,11.8
2022-12-20T13:46:42.133Z,11.9
2022-12-20T13:47:42.133Z,11.8
2022-12-20T13:48:42.146Z,11.9
2022-12-20T13:49:42.146Z,11.9
2022-12-20T13:50:42.137Z,11.7
2022-12-20T13:51:42.143Z,11.8
2022-12-20T13:52:42.142Z,11.9
2022-12-20T13:54:42.156Z,11.8
2022-12-20T13:55:42.145Z,11.7
2022-12-20T13:56:42.141Z,11.6
2022-12-20T13:57:42.194Z,11.5
2022-12-20T13:58:42.145Z,11.6
2022-12-20T13:59:42.247Z,11.6
2022-12-20T14:00:42.160Z,11.6
2022-12-20T14:02:42.472Z,11.5
2022-12-20T14:03:42.304Z,11.3
2022-12-20T14:04:42.224Z,11.3
2022-12-20T14:05:42.146Z,11.3
2022-12-20T14:06:42.145Z,11.2
2022-12-20T14:07:42.139Z,11.2
2022-12-20T14:08:42.141Z,11.4
2022-12-20T14:09:42.141Z,11.2
2022-12-20T14:10:42.139Z,11.3
2022-12-20T14:11:42.146Z,11.4
2022-12-20T14:12:42.139Z,11.4
2022-12-20T14:13:42.138Z,11.4
2022-12-20T14:15:42.289Z,11.4
2022-12-20T14:16:42.209Z,11.3
2022-12-20T14:17:44.834Z,11.3
2022-12-20T14:18:42.155Z,11.4
2022-12-20T14:19:42.143Z,11.3
2022-12-20T14:20:42.207Z,11.4
2022-12-20T14:21:42.151Z,11.4
2022-12-20T14:22:42.146Z,11.1
2022-12-20T14:23:42.154Z,11.1
2022-12-20T14:24:42.140Z,11.3
2022-12-20T14:25:42.307Z,11.3
2022-12-20T14:27:42.158Z,11.2
2022-12-20T14:28:42.141Z,11.3
2022-12-20T14:29:42.149Z,11.3
2022-12-20T14:30:42.237Z,11.1
2022-12-20T14:31:42.163Z,11.2